sensor_id;sensor_type;location;lat;lon;timestamp;P1;durP1;ratioP1;P2;durP2;ratioP2
3922;SDS011;1976;51.694;6.256;2022-09-17T00:01:58;10.73;;;3.70;;
3922;SDS011;1976;51.694;6.256;2022-09-17T00:04:24;15.30;;;4.00;;
3922;SDS011;1976;51.694;6.256;2022-09-17T00:06:50;8.17;;;3.20;;
3922;SDS011;1976;51.694;6.256;2022-09-17T00:09:15;12.37;;;4.27;;
3922;SDS011;1976;51.694;6.256;2022-09-17T00:11:41;21.07;;;5.90;;
3922;SDS011;1976;51.694;6.256;2022-09-17T00:14:09;12.47;;;4.63;;
3922;SDS011;1976;51.694;6.256;2022-09-17T00:16:40;9.97;;;3.60;;
3922;SDS011;1976;51.694;6.256;2022-09-17T00:19:11;9.53;;;4.30;;
3922;SDS011;1976;51.694;6.256;2022-09-17T00:21:41;10.47;;;3.50;;
3922;SDS011;1976;51.694;6.256;2022-09-17T00:24:08;7.97;;;3.93;;
3922;SDS011;1976;51.694;6.256;2022-09-17T00:26:35;13.20;;;4.67;;
3922;SDS011;1976;51.694;6.256;2022-09-17T00:29:01;12.10;;;5.30;;
3922;SDS011;1976;51.694;6.256;2022-09-17T00:31:28;20.33;;;5.30;;
3922;SDS011;1976;51.694;6.256;2022-09-17T00:33:54;13.57;;;5.40;;
3922;SDS011;1976;51.694;6.256;2022-09-17T00:36:21;14.43;;;6.40;;
3922;SDS011;1976;51.694;6.256;2022-09-17T00:38:49;14.20;;;5.53;;
3922;SDS011;1976;51.694;6.256;2022-09-17T00:41:15;13.00;;;5.90;;
3922;SDS011;1976;51.694;6.256;2022-09-17T00:43:49;8.87;;;5.67;;
3922;SDS011;1976;51.694;6.256;2022-09-17T00:46:34;10.67;;;6.57;;
3922;SDS011;1976;51.694;6.256;2022-09-17T00:49:13;19.83;;;6.03;;
3922;SDS011;1976;51.694;6.256;2022-09-17T00:51:46;19.87;;;7.00;;
3922;SDS011;1976;51.694;6.256;2022-09-17T00:54:22;9.10;;;4.50;;
3922;SDS011;1976;51.694;6.256;2022-09-17T00:56:48;6.83;;;3.70;;
3922;SDS011;1976;51.694;6.256;2022-09-17T00:59:15;8.27;;;3.93;;
3922;SDS011;1976;51.694;6.256;2022-09-17T01:01:42;9.37;;;3.00;;
3922;SDS011;1976;51.694;6.256;2022-09-17T01:04:18;13.80;;;3.10;;
3922;SDS011;1976;51.694;6.256;2022-09-17T01:07:30;11.93;;;3.37;;
3922;SDS011;1976;51.694;6.256;2022-09-17T01:23:46;13.93;;;2.50;;
3922;SDS011;1976;51.694;6.256;2022-09-17T01:34:33;12.07;;;2.30;;
3922;SDS011;1976;51.694;6.256;2022-09-17T01:37:11;15.13;;;2.73;;
3922;SDS011;1976;51.694;6.256;2022-09-17T01:42:24;16.60;;;3.17;;
3922;SDS011;1976;51.694;6.256;2022-09-17T01:44:55;18.83;;;2.97;;
3922;SDS011;1976;51.694;6.256;2022-09-17T01:47:37;8.47;;;2.10;;
3922;SDS011;1976;51.694;6.256;2022-09-17T01:50:32;13.10;;;2.53;;
3922;SDS011;1976;51.694;6.256;2022-09-17T01:53:04;11.40;;;2.03;;
3922;SDS011;1976;51.694;6.256;2022-09-17T01:55:34;19.23;;;3.80;;
3922;SDS011;1976;51.694;6.256;2022-09-17T01:58:09;5.93;;;1.83;;
3922;SDS011;1976;51.694;6.256;2022-09-17T02:00:39;16.20;;;3.43;;
3922;SDS011;1976;51.694;6.256;2022-09-17T02:03:16;12.37;;;2.27;;
3922;SDS011;1976;51.694;6.256;2022-09-17T02:05:51;11.57;;;2.70;;
3922;SDS011;1976;51.694;6.256;2022-09-17T02:08:38;10.60;;;1.90;;
3922;SDS011;1976;51.694;6.256;2022-09-17T02:11:10;18.23;;;2.47;;
3922;SDS011;1976;51.694;6.256;2022-09-17T02:14:39;5.77;;;2.40;;
3922;SDS011;1976;51.694;6.256;2022-09-17T02:16:46;14.90;;;2.07;;
3922;SDS011;1976;51.694;6.256;2022-09-17T02:24:37;15.13;;;2.90;;
3922;SDS011;1976;51.694;6.256;2022-09-17T02:27:22;12.03;;;2.40;;
3922;SDS011;1976;51.694;6.256;2022-09-17T02:30:08;12.07;;;2.40;;
3922;SDS011;1976;51.694;6.256;2022-09-17T02:32:35;11.57;;;2.67;;
3922;SDS011;1976;51.694;6.256;2022-09-17T02:35:00;16.30;;;2.83;;
3922;SDS011;1976;51.694;6.256;2022-09-17T02:37:26;9.43;;;1.63;;
3922;SDS011;1976;51.694;6.256;2022-09-17T02:39:52;23.90;;;2.20;;
3922;SDS011;1976;51.694;6.256;2022-09-17T02:56:24;19.47;;;2.70;;
3922;SDS011;1976;51.694;6.256;2022-09-17T03:02:01;20.33;;;2.20;;
3922;SDS011;1976;51.694;6.256;2022-09-17T03:04:34;13.63;;;3.13;;
3922;SDS011;1976;51.694;6.256;2022-09-17T03:07:07;16.43;;;3.80;;
3922;SDS011;1976;51.694;6.256;2022-09-17T03:09:36;19.20;;;5.53;;
3922;SDS011;1976;51.694;6.256;2022-09-17T03:12:02;12.40;;;4.97;;
3922;SDS011;1976;51.694;6.256;2022-09-17T03:14:28;13.23;;;7.20;;
3922;SDS011;1976;51.694;6.256;2022-09-17T03:16:54;21.03;;;6.57;;
3922;SDS011;1976;51.694;6.256;2022-09-17T03:19:20;15.50;;;6.50;;
3922;SDS011;1976;51.694;6.256;2022-09-17T03:21:46;19.40;;;6.27;;
3922;SDS011;1976;51.694;6.256;2022-09-17T03:24:11;15.27;;;5.10;;
3922;SDS011;1976;51.694;6.256;2022-09-17T03:26:37;19.47;;;6.63;;
3922;SDS011;1976;51.694;6.256;2022-09-17T03:29:03;16.40;;;4.20;;
3922;SDS011;1976;51.694;6.256;2022-09-17T03:31:29;10.17;;;3.80;;
3922;SDS011;1976;51.694;6.256;2022-09-17T03:33:54;9.67;;;3.10;;
3922;SDS011;1976;51.694;6.256;2022-09-17T03:36:20;28.33;;;3.77;;
3922;SDS011;1976;51.694;6.256;2022-09-17T03:38:46;19.43;;;3.70;;
3922;SDS011;1976;51.694;6.256;2022-09-17T03:41:11;13.80;;;3.20;;
3922;SDS011;1976;51.694;6.256;2022-09-17T03:43:37;11.30;;;2.43;;
3922;SDS011;1976;51.694;6.256;2022-09-17T03:46:03;18.10;;;3.10;;
3922;SDS011;1976;51.694;6.256;2022-09-17T03:48:30;7.63;;;2.20;;
3922;SDS011;1976;51.694;6.256;2022-09-17T03:50:56;8.37;;;2.63;;
3922;SDS011;1976;51.694;6.256;2022-09-17T03:53:22;7.10;;;2.60;;
3922;SDS011;1976;51.694;6.256;2022-09-17T03:55:48;16.33;;;4.27;;
3922;SDS011;1976;51.694;6.256;2022-09-17T03:58:13;18.93;;;5.23;;
3922;SDS011;1976;51.694;6.256;2022-09-17T04:00:39;10.50;;;5.93;;
3922;SDS011;1976;51.694;6.256;2022-09-17T04:03:06;17.40;;;7.60;;
3922;SDS011;1976;51.694;6.256;2022-09-17T04:05:32;15.27;;;6.27;;
3922;SDS011;1976;51.694;6.256;2022-09-17T04:07:57;15.50;;;5.70;;
3922;SDS011;1976;51.694;6.256;2022-09-17T04:10:23;22.43;;;6.20;;
3922;SDS011;1976;51.694;6.256;2022-09-17T04:12:49;12.33;;;4.90;;
3922;SDS011;1976;51.694;6.256;2022-09-17T04:15:15;22.07;;;5.70;;
3922;SDS011;1976;51.694;6.256;2022-09-17T04:17:40;10.87;;;5.90;;
3922;SDS011;1976;51.694;6.256;2022-09-17T04:20:06;15.23;;;6.60;;
3922;SDS011;1976;51.694;6.256;2022-09-17T04:22:32;18.10;;;5.57;;
3922;SDS011;1976;51.694;6.256;2022-09-17T04:24:58;20.27;;;4.40;;
3922;SDS011;1976;51.694;6.256;2022-09-17T04:27:23;9.70;;;3.90;;
3922;SDS011;1976;51.694;6.256;2022-09-17T04:29:49;22.50;;;5.67;;
3922;SDS011;1976;51.694;6.256;2022-09-17T04:32:15;14.50;;;5.57;;
3922;SDS011;1976;51.694;6.256;2022-09-17T04:34:41;24.33;;;4.10;;
3922;SDS011;1976;51.694;6.256;2022-09-17T04:37:06;12.30;;;5.47;;
3922;SDS011;1976;51.694;6.256;2022-09-17T04:39:32;10.03;;;4.20;;
3922;SDS011;1976;51.694;6.256;2022-09-17T04:41:57;22.50;;;5.20;;
3922;SDS011;1976;51.694;6.256;2022-09-17T04:44:23;21.30;;;4.60;;
3922;SDS011;1976;51.694;6.256;2022-09-17T04:46:49;14.93;;;3.47;;
3922;SDS011;1976;51.694;6.256;2022-09-17T04:49:14;6.67;;;2.77;;
3922;SDS011;1976;51.694;6.256;2022-09-17T04:51:40;21.30;;;2.20;;
3922;SDS011;1976;51.694;6.256;2022-09-17T04:54:05;16.57;;;2.53;;
3922;SDS011;1976;51.694;6.256;2022-09-17T04:56:31;21.67;;;2.77;;
3922;SDS011;1976;51.694;6.256;2022-09-17T04:58:57;8.33;;;2.80;;
3922;SDS011;1976;51.694;6.256;2022-09-17T05:01:22;19.33;;;2.20;;
3922;SDS011;1976;51.694;6.256;2022-09-17T05:03:48;14.03;;;2.60;;
3922;SDS011;1976;51.694;6.256;2022-09-17T05:06:14;14.67;;;3.17;;
3922;SDS011;1976;51.694;6.256;2022-09-17T05:08:39;9.80;;;1.70;;
3922;SDS011;1976;51.694;6.256;2022-09-17T05:11:05;17.30;;;2.20;;
3922;SDS011;1976;51.694;6.256;2022-09-17T05:13:31;17.77;;;4.27;;
3922;SDS011;1976;51.694;6.256;2022-09-17T05:15:56;9.80;;;4.07;;
3922;SDS011;1976;51.694;6.256;2022-09-17T05:18:22;7.20;;;2.20;;
3922;SDS011;1976;51.694;6.256;2022-09-17T05:20:48;12.40;;;3.17;;
3922;SDS011;1976;51.694;6.256;2022-09-17T05:23:13;16.27;;;2.07;;
3922;SDS011;1976;51.694;6.256;2022-09-17T05:25:39;12.07;;;2.90;;
3922;SDS011;1976;51.694;6.256;2022-09-17T05:28:05;9.63;;;1.83;;
3922;SDS011;1976;51.694;6.256;2022-09-17T05:30:30;19.83;;;2.40;;
3922;SDS011;1976;51.694;6.256;2022-09-17T05:33:03;9.00;;;2.20;;
3922;SDS011;1976;51.694;6.256;2022-09-17T05:35:31;10.80;;;2.00;;
3922;SDS011;1976;51.694;6.256;2022-09-17T05:38:01;12.17;;;2.10;;
3922;SDS011;1976;51.694;6.256;2022-09-17T05:40:28;5.33;;;2.00;;
3922;SDS011;1976;51.694;6.256;2022-09-17T05:43:01;10.30;;;2.33;;
3922;SDS011;1976;51.694;6.256;2022-09-17T05:45:28;9.03;;;1.90;;
3922;SDS011;1976;51.694;6.256;2022-09-17T05:47:58;5.37;;;2.17;;
3922;SDS011;1976;51.694;6.256;2022-09-17T05:50:25;9.50;;;2.70;;
3922;SDS011;1976;51.694;6.256;2022-09-17T05:52:52;9.03;;;2.57;;
3922;SDS011;1976;51.694;6.256;2022-09-17T05:55:19;5.47;;;1.70;;
3922;SDS011;1976;51.694;6.256;2022-09-17T05:57:46;14.60;;;2.20;;
3922;SDS011;1976;51.694;6.256;2022-09-17T06:00:13;10.10;;;2.50;;
3922;SDS011;1976;51.694;6.256;2022-09-17T06:02:39;9.60;;;2.47;;
3922;SDS011;1976;51.694;6.256;2022-09-17T06:05:04;8.60;;;2.50;;
3922;SDS011;1976;51.694;6.256;2022-09-17T06:07:30;6.40;;;1.80;;
3922;SDS011;1976;51.694;6.256;2022-09-17T06:09:59;6.73;;;2.03;;
3922;SDS011;1976;51.694;6.256;2022-09-17T06:12:24;12.63;;;1.80;;
3922;SDS011;1976;51.694;6.256;2022-09-17T06:14:50;17.23;;;2.80;;
3922;SDS011;1976;51.694;6.256;2022-09-17T06:17:15;9.60;;;2.03;;
3922;SDS011;1976;51.694;6.256;2022-09-17T06:19:41;11.60;;;2.10;;
3922;SDS011;1976;51.694;6.256;2022-09-17T06:22:07;8.10;;;1.80;;
3922;SDS011;1976;51.694;6.256;2022-09-17T06:24:32;9.90;;;2.07;;
3922;SDS011;1976;51.694;6.256;2022-09-17T06:26:58;4.63;;;1.47;;
3922;SDS011;1976;51.694;6.256;2022-09-17T06:29:23;18.80;;;2.30;;
3922;SDS011;1976;51.694;6.256;2022-09-17T06:31:49;10.80;;;1.80;;
3922;SDS011;1976;51.694;6.256;2022-09-17T06:34:15;11.37;;;2.50;;
3922;SDS011;1976;51.694;6.256;2022-09-17T06:36:41;9.70;;;2.20;;
3922;SDS011;1976;51.694;6.256;2022-09-17T06:39:07;9.60;;;2.47;;
3922;SDS011;1976;51.694;6.256;2022-09-17T06:41:35;3.47;;;1.80;;
3922;SDS011;1976;51.694;6.256;2022-09-17T06:44:01;21.67;;;2.30;;
3922;SDS011;1976;51.694;6.256;2022-09-17T06:46:27;12.53;;;2.20;;
3922;SDS011;1976;51.694;6.256;2022-09-17T06:48:53;3.57;;;1.70;;
3922;SDS011;1976;51.694;6.256;2022-09-17T06:51:19;11.77;;;1.90;;
3922;SDS011;1976;51.694;6.256;2022-09-17T06:53:46;6.73;;;2.70;;
3922;SDS011;1976;51.694;6.256;2022-09-17T06:56:12;14.37;;;2.20;;
3922;SDS011;1976;51.694;6.256;2022-09-17T06:58:39;7.30;;;2.13;;
3922;SDS011;1976;51.694;6.256;2022-09-17T07:01:09;12.10;;;2.17;;
3922;SDS011;1976;51.694;6.256;2022-09-17T07:03:36;13.93;;;2.43;;
3922;SDS011;1976;51.694;6.256;2022-09-17T07:06:02;12.07;;;1.87;;
3922;SDS011;1976;51.694;6.256;2022-09-17T07:08:33;7.37;;;2.03;;
3922;SDS011;1976;51.694;6.256;2022-09-17T07:10:58;5.57;;;1.60;;
3922;SDS011;1976;51.694;6.256;2022-09-17T07:13:25;6.77;;;1.83;;
3922;SDS011;1976;51.694;6.256;2022-09-17T07:15:51;8.57;;;1.60;;
3922;SDS011;1976;51.694;6.256;2022-09-17T07:18:18;8.63;;;1.90;;
3922;SDS011;1976;51.694;6.256;2022-09-17T07:20:50;4.80;;;1.87;;
3922;SDS011;1976;51.694;6.256;2022-09-17T07:23:29;7.50;;;1.90;;
3922;SDS011;1976;51.694;6.256;2022-09-17T07:25:57;5.30;;;1.70;;
3922;SDS011;1976;51.694;6.256;2022-09-17T07:28:39;6.07;;;1.87;;
3922;SDS011;1976;51.694;6.256;2022-09-17T07:31:06;7.73;;;1.73;;
3922;SDS011;1976;51.694;6.256;2022-09-17T07:33:33;9.10;;;2.00;;
3922;SDS011;1976;51.694;6.256;2022-09-17T07:36:03;6.50;;;2.00;;
3922;SDS011;1976;51.694;6.256;2022-09-17T07:38:34;3.50;;;1.50;;
3922;SDS011;1976;51.694;6.256;2022-09-17T07:41:01;11.20;;;3.17;;
3922;SDS011;1976;51.694;6.256;2022-09-17T07:43:29;7.80;;;1.50;;
3922;SDS011;1976;51.694;6.256;2022-09-17T07:45:57;4.57;;;1.43;;
3922;SDS011;1976;51.694;6.256;2022-09-17T07:48:23;3.83;;;1.47;;
3922;SDS011;1976;51.694;6.256;2022-09-17T07:50:49;7.43;;;1.73;;
3922;SDS011;1976;51.694;6.256;2022-09-17T07:53:15;10.27;;;1.70;;
3922;SDS011;1976;51.694;6.256;2022-09-17T07:55:41;5.47;;;1.40;;
3922;SDS011;1976;51.694;6.256;2022-09-17T07:58:07;5.13;;;1.40;;
3922;SDS011;1976;51.694;6.256;2022-09-17T08:00:33;6.43;;;1.80;;
3922;SDS011;1976;51.694;6.256;2022-09-17T08:02:58;5.40;;;1.70;;
3922;SDS011;1976;51.694;6.256;2022-09-17T08:05:25;4.33;;;2.17;;
3922;SDS011;1976;51.694;6.256;2022-09-17T08:07:52;11.10;;;2.20;;
3922;SDS011;1976;51.694;6.256;2022-09-17T08:10:19;6.43;;;2.23;;
3922;SDS011;1976;51.694;6.256;2022-09-17T08:12:51;8.07;;;1.80;;
3922;SDS011;1976;51.694;6.256;2022-09-17T08:15:19;3.70;;;1.63;;
3922;SDS011;1976;51.694;6.256;2022-09-17T08:17:45;11.57;;;2.33;;
3922;SDS011;1976;51.694;6.256;2022-09-17T08:20:12;6.00;;;2.13;;
3922;SDS011;1976;51.694;6.256;2022-09-17T08:22:39;13.03;;;2.30;;
3922;SDS011;1976;51.694;6.256;2022-09-17T08:25:05;5.93;;;1.30;;
3922;SDS011;1976;51.694;6.256;2022-09-17T08:27:32;11.67;;;2.87;;
3922;SDS011;1976;51.694;6.256;2022-09-17T08:29:58;5.47;;;1.37;;
3922;SDS011;1976;51.694;6.256;2022-09-17T08:32:24;7.83;;;1.60;;
3922;SDS011;1976;51.694;6.256;2022-09-17T08:34:50;7.40;;;1.90;;
3922;SDS011;1976;51.694;6.256;2022-09-17T08:37:18;7.90;;;2.10;;
3922;SDS011;1976;51.694;6.256;2022-09-17T08:39:44;3.57;;;1.47;;
3922;SDS011;1976;51.694;6.256;2022-09-17T08:42:19;9.00;;;1.53;;
3922;SDS011;1976;51.694;6.256;2022-09-17T08:45:04;8.23;;;1.90;;
3922;SDS011;1976;51.694;6.256;2022-09-17T08:47:35;4.60;;;1.80;;
3922;SDS011;1976;51.694;6.256;2022-09-17T08:50:04;5.10;;;1.50;;
3922;SDS011;1976;51.694;6.256;2022-09-17T09:00:48;8.37;;;1.30;;
3922;SDS011;1976;51.694;6.256;2022-09-17T09:05:58;9.07;;;2.03;;
3922;SDS011;1976;51.694;6.256;2022-09-17T09:08:45;5.47;;;1.37;;
3922;SDS011;1976;51.694;6.256;2022-09-17T09:11:23;2.93;;;1.17;;
3922;SDS011;1976;51.694;6.256;2022-09-17T09:14:03;6.87;;;1.30;;
3922;SDS011;1976;51.694;6.256;2022-09-17T09:16:38;13.67;;;1.70;;
3922;SDS011;1976;51.694;6.256;2022-09-17T09:19:22;4.70;;;1.60;;
3922;SDS011;1976;51.694;6.256;2022-09-17T09:24:25;2.97;;;1.20;;
3922;SDS011;1976;51.694;6.256;2022-09-17T09:27:28;3.20;;;1.60;;
3922;SDS011;1976;51.694;6.256;2022-09-17T09:30:05;5.53;;;1.70;;
3922;SDS011;1976;51.694;6.256;2022-09-17T09:40:41;5.90;;;1.70;;
3922;SDS011;1976;51.694;6.256;2022-09-17T09:43:19;3.90;;;1.40;;
3922;SDS011;1976;51.694;6.256;2022-09-17T09:54:02;6.93;;;1.17;;
3922;SDS011;1976;51.694;6.256;2022-09-17T09:59:06;2.60;;;1.17;;
3922;SDS011;1976;51.694;6.256;2022-09-17T10:01:32;0.80;;;0.73;;
3922;SDS011;1976;51.694;6.256;2022-09-17T10:04:05;1.57;;;0.80;;
3922;SDS011;1976;51.694;6.256;2022-09-17T10:06:47;2.10;;;1.10;;
3922;SDS011;1976;51.694;6.256;2022-09-17T10:09:15;4.87;;;1.00;;
3922;SDS011;1976;51.694;6.256;2022-09-17T10:11:57;4.50;;;1.37;;
3922;SDS011;1976;51.694;6.256;2022-09-17T10:14:25;4.57;;;1.07;;
3922;SDS011;1976;51.694;6.256;2022-09-17T10:17:14;4.10;;;0.93;;
3922;SDS011;1976;51.694;6.256;2022-09-17T10:19:46;1.10;;;0.80;;
3922;SDS011;1976;51.694;6.256;2022-09-17T10:22:35;1.00;;;0.90;;
3922;SDS011;1976;51.694;6.256;2022-09-17T10:25:17;6.37;;;1.00;;
3922;SDS011;1976;51.694;6.256;2022-09-17T10:27:47;1.97;;;1.10;;
3922;SDS011;1976;51.694;6.256;2022-09-17T10:30:14;4.00;;;0.97;;
3922;SDS011;1976;51.694;6.256;2022-09-17T10:32:41;10.53;;;1.20;;
3922;SDS011;1976;51.694;6.256;2022-09-17T10:42:43;1.77;;;0.70;;
3922;SDS011;1976;51.694;6.256;2022-09-17T10:47:48;2.10;;;0.90;;
3922;SDS011;1976;51.694;6.256;2022-09-17T10:50:16;3.23;;;1.07;;
3922;SDS011;1976;51.694;6.256;2022-09-17T10:52:47;2.03;;;0.90;;
3922;SDS011;1976;51.694;6.256;2022-09-17T10:58:11;1.20;;;0.80;;
3922;SDS011;1976;51.694;6.256;2022-09-17T11:20:40;17.80;;;2.10;;
3922;SDS011;1976;51.694;6.256;2022-09-17T11:23:39;4.23;;;1.93;;
3922;SDS011;1976;51.694;6.256;2022-09-17T11:29:32;0.70;;;0.70;;
3922;SDS011;1976;51.694;6.256;2022-09-17T11:32:29;0.70;;;0.70;;
3922;SDS011;1976;51.694;6.256;2022-09-17T11:35:07;0.70;;;0.70;;
3922;SDS011;1976;51.694;6.256;2022-09-17T11:37:45;0.70;;;0.70;;
3922;SDS011;1976;51.694;6.256;2022-09-17T11:40:42;0.70;;;0.70;;
3922;SDS011;1976;51.694;6.256;2022-09-17T11:48:34;0.70;;;0.70;;
3922;SDS011;1976;51.694;6.256;2022-09-17T11:51:21;0.60;;;0.60;;
3922;SDS011;1976;51.694;6.256;2022-09-17T11:53:56;0.60;;;0.60;;
3922;SDS011;1976;51.694;6.256;2022-09-17T12:01:37;0.60;;;0.50;;
3922;SDS011;1976;51.694;6.256;2022-09-17T12:04:26;0.60;;;0.53;;
3922;SDS011;1976;51.694;6.256;2022-09-17T12:07:14;1.20;;;1.00;;
3922;SDS011;1976;51.694;6.256;2022-09-17T12:09:52;0.50;;;0.50;;
3922;SDS011;1976;51.694;6.256;2022-09-17T12:12:27;1.23;;;1.03;;
3922;SDS011;1976;51.694;6.256;2022-09-17T12:15:28;0.50;;;0.50;;
3922;SDS011;1976;51.694;6.256;2022-09-17T12:17:56;0.50;;;0.50;;
3922;SDS011;1976;51.694;6.256;2022-09-17T12:20:31;0.50;;;0.50;;
3922;SDS011;1976;51.694;6.256;2022-09-17T12:23:03;0.50;;;0.50;;
3922;SDS011;1976;51.694;6.256;2022-09-17T12:25:41;0.50;;;0.40;;
3922;SDS011;1976;51.694;6.256;2022-09-17T12:28:22;0.50;;;0.40;;
3922;SDS011;1976;51.694;6.256;2022-09-17T12:31:42;0.50;;;0.50;;
3922;SDS011;1976;51.694;6.256;2022-09-17T12:34:11;3.27;;;1.10;;
3922;SDS011;1976;51.694;6.256;2022-09-17T12:48:05;2.53;;;1.30;;
3922;SDS011;1976;51.694;6.256;2022-09-17T12:51:05;3.20;;;1.87;;
3922;SDS011;1976;51.694;6.256;2022-09-17T12:59:12;4.67;;;1.33;;
3922;SDS011;1976;51.694;6.256;2022-09-17T13:10:21;6.83;;;1.53;;
3922;SDS011;1976;51.694;6.256;2022-09-17T13:13:18;10.93;;;1.60;;
3922;SDS011;1976;51.694;6.256;2022-09-17T13:16:16;8.50;;;1.90;;
3922;SDS011;1976;51.694;6.256;2022-09-17T13:19:01;8.80;;;1.60;;
3922;SDS011;1976;51.694;6.256;2022-09-17T13:22:05;9.40;;;1.80;;
3922;SDS011;1976;51.694;6.256;2022-09-17T13:24:38;5.30;;;2.27;;
3922;SDS011;1976;51.694;6.256;2022-09-17T13:27:04;1.93;;;1.10;;
3922;SDS011;1976;51.694;6.256;2022-09-17T13:32:09;5.00;;;1.47;;
3922;SDS011;1976;51.694;6.256;2022-09-17T13:40:34;3.63;;;1.30;;
3922;SDS011;1976;51.694;6.256;2022-09-17T13:43:06;2.30;;;0.90;;
3922;SDS011;1976;51.694;6.256;2022-09-17T13:48:25;2.80;;;1.00;;
3922;SDS011;1976;51.694;6.256;2022-09-17T13:50:53;4.20;;;1.27;;
3922;SDS011;1976;51.694;6.256;2022-09-17T13:53:23;3.73;;;1.30;;
3922;SDS011;1976;51.694;6.256;2022-09-17T13:55:51;3.10;;;1.57;;
3922;SDS011;1976;51.694;6.256;2022-09-17T14:04:03;1.90;;;1.37;;
3922;SDS011;1976;51.694;6.256;2022-09-17T14:21:39;5.13;;;1.00;;
3922;SDS011;1976;51.694;6.256;2022-09-17T14:35:30;5.17;;;2.00;;
3922;SDS011;1976;51.694;6.256;2022-09-17T14:41:15;2.57;;;1.00;;
3922;SDS011;1976;51.694;6.256;2022-09-17T14:44:01;4.20;;;1.40;;
3922;SDS011;1976;51.694;6.256;2022-09-17T14:49:14;2.90;;;2.00;;
3922;SDS011;1976;51.694;6.256;2022-09-17T14:51:44;8.60;;;0.83;;
3922;SDS011;1976;51.694;6.256;2022-09-17T14:54:17;12.97;;;1.57;;
3922;SDS011;1976;51.694;6.256;2022-09-17T14:56:49;5.13;;;1.33;;
3922;SDS011;1976;51.694;6.256;2022-09-17T15:02:26;3.63;;;1.07;;
3922;SDS011;1976;51.694;6.256;2022-09-17T15:04:55;6.30;;;1.97;;
3922;SDS011;1976;51.694;6.256;2022-09-17T15:07:21;4.43;;;1.77;;
3922;SDS011;1976;51.694;6.256;2022-09-17T15:09:48;7.97;;;1.30;;
3922;SDS011;1976;51.694;6.256;2022-09-17T15:12:16;7.03;;;1.37;;
3922;SDS011;1976;51.694;6.256;2022-09-17T15:14:45;2.57;;;1.20;;
3922;SDS011;1976;51.694;6.256;2022-09-17T15:17:16;9.63;;;1.70;;
3922;SDS011;1976;51.694;6.256;2022-09-17T15:19:47;4.00;;;1.10;;
3922;SDS011;1976;51.694;6.256;2022-09-17T15:22:19;13.07;;;1.60;;
3922;SDS011;1976;51.694;6.256;2022-09-17T15:25:22;13.73;;;1.47;;
3922;SDS011;1976;51.694;6.256;2022-09-17T15:27:47;5.30;;;1.80;;
3922;SDS011;1976;51.694;6.256;2022-09-17T15:30:15;4.50;;;1.37;;
3922;SDS011;1976;51.694;6.256;2022-09-17T15:32:54;6.60;;;1.40;;
3922;SDS011;1976;51.694;6.256;2022-09-17T15:37:55;4.00;;;1.23;;
3922;SDS011;1976;51.694;6.256;2022-09-17T15:40:42;5.80;;;1.33;;
3922;SDS011;1976;51.694;6.256;2022-09-17T15:45:51;11.17;;;1.63;;
3922;SDS011;1976;51.694;6.256;2022-09-17T15:50:52;2.70;;;1.33;;
3922;SDS011;1976;51.694;6.256;2022-09-17T15:53:28;7.37;;;1.17;;
3922;SDS011;1976;51.694;6.256;2022-09-17T15:58:27;4.60;;;1.40;;
3922;SDS011;1976;51.694;6.256;2022-09-17T16:08:54;7.03;;;2.30;;
3922;SDS011;1976;51.694;6.256;2022-09-17T16:11:22;5.47;;;1.77;;
3922;SDS011;1976;51.694;6.256;2022-09-17T16:13:50;11.90;;;1.60;;
3922;SDS011;1976;51.694;6.256;2022-09-17T16:18:59;7.60;;;2.10;;
3922;SDS011;1976;51.694;6.256;2022-09-17T16:21:25;4.73;;;1.20;;
3922;SDS011;1976;51.694;6.256;2022-09-17T16:23:50;4.23;;;1.37;;
3922;SDS011;1976;51.694;6.256;2022-09-17T16:26:23;8.27;;;1.67;;
3922;SDS011;1976;51.694;6.256;2022-09-17T16:29:02;7.63;;;2.03;;
3922;SDS011;1976;51.694;6.256;2022-09-17T16:31:31;7.30;;;1.50;;
3922;SDS011;1976;51.694;6.256;2022-09-17T16:33:57;8.83;;;1.77;;
3922;SDS011;1976;51.694;6.256;2022-09-17T16:36:24;6.13;;;1.77;;
3922;SDS011;1976;51.694;6.256;2022-09-17T16:38:50;3.73;;;1.50;;
3922;SDS011;1976;51.694;6.256;2022-09-17T16:41:15;5.43;;;2.00;;
3922;SDS011;1976;51.694;6.256;2022-09-17T16:43:41;9.30;;;2.33;;
3922;SDS011;1976;51.694;6.256;2022-09-17T16:46:07;7.47;;;1.93;;
3922;SDS011;1976;51.694;6.256;2022-09-17T16:48:34;5.03;;;1.23;;
3922;SDS011;1976;51.694;6.256;2022-09-17T16:51:05;9.03;;;2.20;;
3922;SDS011;1976;51.694;6.256;2022-09-17T16:53:32;1.80;;;1.40;;
3922;SDS011;1976;51.694;6.256;2022-09-17T16:55:58;4.67;;;1.87;;
3922;SDS011;1976;51.694;6.256;2022-09-17T16:58:24;4.60;;;1.60;;
3922;SDS011;1976;51.694;6.256;2022-09-17T17:00:50;7.73;;;2.67;;
3922;SDS011;1976;51.694;6.256;2022-09-17T17:03:16;4.10;;;1.50;;
3922;SDS011;1976;51.694;6.256;2022-09-17T17:05:41;10.23;;;1.63;;
3922;SDS011;1976;51.694;6.256;2022-09-17T17:08:07;3.17;;;1.33;;
3922;SDS011;1976;51.694;6.256;2022-09-17T17:10:33;10.27;;;2.37;;
3922;SDS011;1976;51.694;6.256;2022-09-17T17:13:00;12.87;;;1.97;;
3922;SDS011;1976;51.694;6.256;2022-09-17T17:15:25;8.07;;;2.30;;
3922;SDS011;1976;51.694;6.256;2022-09-17T17:17:51;15.13;;;2.03;;
3922;SDS011;1976;51.694;6.256;2022-09-17T17:20:17;9.80;;;2.10;;
3922;SDS011;1976;51.694;6.256;2022-09-17T17:22:43;10.43;;;2.13;;
3922;SDS011;1976;51.694;6.256;2022-09-17T17:25:09;5.13;;;1.90;;
3922;SDS011;1976;51.694;6.256;2022-09-17T17:27:36;9.97;;;1.70;;
3922;SDS011;1976;51.694;6.256;2022-09-17T17:30:06;6.30;;;2.00;;
3922;SDS011;1976;51.694;6.256;2022-09-17T17:32:34;10.00;;;4.37;;
3922;SDS011;1976;51.694;6.256;2022-09-17T17:35:01;6.93;;;1.90;;
3922;SDS011;1976;51.694;6.256;2022-09-17T17:37:27;5.93;;;1.73;;
3922;SDS011;1976;51.694;6.256;2022-09-17T17:39:52;10.70;;;2.20;;
3922;SDS011;1976;51.694;6.256;2022-09-17T17:42:19;6.90;;;1.67;;
3922;SDS011;1976;51.694;6.256;2022-09-17T17:44:45;7.27;;;1.90;;
3922;SDS011;1976;51.694;6.256;2022-09-17T17:47:11;8.73;;;2.13;;
3922;SDS011;1976;51.694;6.256;2022-09-17T17:49:38;16.93;;;2.13;;
3922;SDS011;1976;51.694;6.256;2022-09-17T17:52:03;8.97;;;2.27;;
3922;SDS011;1976;51.694;6.256;2022-09-17T17:54:30;5.80;;;2.17;;
3922;SDS011;1976;51.694;6.256;2022-09-17T17:56:55;8.40;;;1.60;;
3922;SDS011;1976;51.694;6.256;2022-09-17T17:59:21;16.50;;;2.03;;
3922;SDS011;1976;51.694;6.256;2022-09-17T18:01:47;11.40;;;2.27;;
3922;SDS011;1976;51.694;6.256;2022-09-17T18:04:12;5.60;;;2.10;;
3922;SDS011;1976;51.694;6.256;2022-09-17T18:06:38;7.30;;;1.97;;
3922;SDS011;1976;51.694;6.256;2022-09-17T18:09:04;8.40;;;1.50;;
3922;SDS011;1976;51.694;6.256;2022-09-17T18:11:31;10.03;;;2.63;;
3922;SDS011;1976;51.694;6.256;2022-09-17T18:13:57;16.20;;;2.90;;
3922;SDS011;1976;51.694;6.256;2022-09-17T18:16:27;7.70;;;1.73;;
3922;SDS011;1976;51.694;6.256;2022-09-17T18:18:54;10.10;;;2.30;;
3922;SDS011;1976;51.694;6.256;2022-09-17T18:21:21;7.73;;;1.80;;
3922;SDS011;1976;51.694;6.256;2022-09-17T18:23:48;5.70;;;1.67;;
3922;SDS011;1976;51.694;6.256;2022-09-17T18:26:15;7.23;;;2.10;;
3922;SDS011;1976;51.694;6.256;2022-09-17T18:28:45;9.00;;;1.37;;
3922;SDS011;1976;51.694;6.256;2022-09-17T18:31:21;7.03;;;1.93;;
3922;SDS011;1976;51.694;6.256;2022-09-17T18:33:52;2.33;;;1.40;;
3922;SDS011;1976;51.694;6.256;2022-09-17T18:36:23;2.27;;;1.10;;
3922;SDS011;1976;51.694;6.256;2022-09-17T18:38:56;7.10;;;2.53;;
3922;SDS011;1976;51.694;6.256;2022-09-17T18:41:33;5.63;;;1.60;;
3922;SDS011;1976;51.694;6.256;2022-09-17T18:44:05;8.87;;;2.80;;
3922;SDS011;1976;51.694;6.256;2022-09-17T18:46:31;3.33;;;1.20;;
3922;SDS011;1976;51.694;6.256;2022-09-17T18:48:57;3.20;;;1.47;;
3922;SDS011;1976;51.694;6.256;2022-09-17T18:51:24;3.40;;;1.13;;
3922;SDS011;1976;51.694;6.256;2022-09-17T18:53:50;6.53;;;1.63;;
3922;SDS011;1976;51.694;6.256;2022-09-17T18:56:21;2.87;;;1.17;;
3922;SDS011;1976;51.694;6.256;2022-09-17T18:58:48;4.10;;;1.20;;
3922;SDS011;1976;51.694;6.256;2022-09-17T19:01:16;3.40;;;1.33;;
3922;SDS011;1976;51.694;6.256;2022-09-17T19:03:43;5.77;;;1.77;;
3922;SDS011;1976;51.694;6.256;2022-09-17T19:06:09;3.90;;;1.23;;
3922;SDS011;1976;51.694;6.256;2022-09-17T19:08:36;3.17;;;1.00;;
3922;SDS011;1976;51.694;6.256;2022-09-17T19:11:02;1.73;;;1.20;;
3922;SDS011;1976;51.694;6.256;2022-09-17T19:13:35;1.17;;;1.00;;
3922;SDS011;1976;51.694;6.256;2022-09-17T19:16:03;4.33;;;1.43;;